Time;durP1;ratioP1;P1;durP2;ratioP2;P2;SDS_P1;SDS_P2;PMS_P1;PMS_P2;Temp;Humidity;BMP_temperature;BMP_pressure;BME280_temperature;BME280_humidity;BME280_pressure;Samples;Min_cycle;Max_cycle;Signal;HPM_P1;HPM_P2
2022/08/03 00:01:05;;;;;;;7.75;1.92;;;21.80;99.90;;;;;;5041477;28;20041;-66
2022/08/03 00:03:31;;;;;;;5.57;1.60;;;21.80;99.90;;;;;;5038106;28;20523;-66
2022/08/03 00:05:57;;;;;;;5.15;1.50;;;21.70;99.90;;;;;;5036599;28;20053;-66
2022/08/03 00:08:22;;;;;;;6.18;1.77;;;21.70;99.90;;;;;;5041948;28;20115;-66
2022/08/03 00:10:48;;;;;;;7.70;1.88;;;21.70;99.90;;;;;;5038871;28;20061;-66
2022/08/03 00:13:14;;;;;;;7.53;2.10;;;21.60;99.90;;;;;;5034803;28;20459;-66
2022/08/03 00:15:41;;;;;;;5.95;1.80;;;21.60;99.90;;;;;;5030292;28;20102;-63
2022/08/03 00:18:07;;;;;;;8.48;1.92;;;21.60;99.90;;;;;;5042124;28;20179;-66
2022/08/03 00:20:33;;;;;;;7.72;1.75;;;21.60;99.90;;;;;;5039411;28;20214;-66
2022/08/03 00:22:59;;;;;;;7.55;2.00;;;21.60;99.90;;;;;;5039545;28;20042;-66
2022/08/03 00:25:24;;;;;;;9.20;1.88;;;21.60;99.90;;;;;;5037341;28;20068;-64
2022/08/03 00:27:50;;;;;;;7.85;1.90;;;21.50;99.90;;;;;;5043740;28;20523;-64
2022/08/03 00:30:16;;;;;;;5.75;1.80;;;21.50;99.90;;;;;;5032322;28;20056;-64
2022/08/03 00:32:41;;;;;;;6.40;1.77;;;21.50;99.90;;;;;;5034130;28;20068;-64
2022/08/03 00:35:07;;;;;;;7.82;1.75;;;21.50;99.90;;;;;;5035506;28;20499;-64
2022/08/03 00:37:33;;;;;;;9.30;1.92;;;21.40;99.90;;;;;;5041706;28;20037;-64
2022/08/03 00:39:58;;;;;;;9.45;1.88;;;21.40;99.90;;;;;;5042606;28;20488;-64
2022/08/03 00:42:24;;;;;;;6.82;1.73;;;21.40;99.90;;;;;;5034060;28;20049;-64
2022/08/03 00:44:49;;;;;;;4.82;1.75;;;21.30;99.90;;;;;;5038744;28;20120;-64
2022/08/03 00:47:15;;;;;;;5.65;1.88;;;21.30;99.90;;;;;;5035925;28;20044;-66
2022/08/03 00:49:41;;;;;;;7.45;1.70;;;21.20;99.90;;;;;;5034167;28;20446;-63
2022/08/03 00:52:12;;;;;;;7.45;2.00;;;21.20;99.90;;;;;;5045316;28;20048;-64
2022/08/03 00:54:39;;;;;;;7.07;2.10;;;21.20;99.90;;;;;;5039248;28;20064;-64
2022/08/03 00:57:05;;;;;;;6.20;1.77;;;21.10;99.90;;;;;;5037491;28;20047;-64
2022/08/03 00:59:30;;;;;;;7.25;2.05;;;21.10;99.90;;;;;;5038823;28;20071;-63
2022/08/03 01:01:56;;;;;;;9.23;2.22;;;21.10;99.90;;;;;;5040718;28;20036;-64
2022/08/03 01:04:22;;;;;;;6.95;2.25;;;21.10;99.90;;;;;;5043724;28;20065;-64
2022/08/03 01:07:11;;;;;;;8.27;2.10;;;21.10;99.90;;;;;;5035018;28;20131;-64
2022/08/03 01:09:59;;;;;;;5.88;2.10;;;21.00;99.90;;;;;;5037553;28;20393;-64
2022/08/03 01:12:34;;;;;;;8.10;2.20;;;20.90;99.90;;;;;;5036265;28;20077;-64
2022/08/03 01:15:19;;;;;;;8.82;2.20;;;20.90;99.90;;;;;;5041321;28;20088;-64
2022/08/03 01:17:57;;;;;;;8.77;2.20;;;20.90;99.90;;;;;;5043573;28;20114;-64
2022/08/03 01:20:26;;;;;;;7.40;2.10;;;20.80;99.90;;;;;;5040420;28;20656;-64
2022/08/03 01:23:39;;;;;;;9.25;2.33;;;20.90;99.90;;;;;;5061391;28;20112;-64
2022/08/03 01:26:32;;;;;;;6.32;2.10;;;20.80;99.90;;;;;;5025121;28;20045;-64
2022/08/03 01:29:24;;;;;;;7.38;1.90;;;20.80;99.90;;;;;;5039960;28;20052;-64
2022/08/03 01:32:01;;;;;;;7.38;2.15;;;20.70;99.90;;;;;;5046396;28;20739;-64
2022/08/03 01:34:33;;;;;;;6.68;2.00;;;20.80;99.90;;;;;;5036362;28;20075;-64
2022/08/03 01:37:01;;;;;;;8.25;2.05;;;20.70;99.90;;;;;;5037019;28;20049;-64
2022/08/03 01:39:30;;;;;;;6.70;2.28;;;20.70;99.90;;;;;;5043557;28;20049;-64
2022/08/03 01:42:01;;;;;;;7.65;2.38;;;20.70;99.90;;;;;;5048273;28;20049;-64
2022/08/03 01:44:29;;;;;;;7.15;2.10;;;20.60;99.90;;;;;;5038839;28;20051;-64
2022/08/03 01:47:00;;;;;;;7.13;1.98;;;20.60;99.90;;;;;;5045930;28;20559;-64
2022/08/03 01:49:28;;;;;;;7.45;2.13;;;20.60;99.90;;;;;;5034227;28;20372;-64
2022/08/03 01:51:55;;;;;;;6.50;2.30;;;20.60;99.90;;;;;;5039637;28;20164;-64
2022/08/03 01:54:23;;;;;;;5.47;1.92;;;20.60;99.90;;;;;;5037808;28;20045;-64
2022/08/03 01:56:51;;;;;;;7.70;2.35;;;20.60;99.90;;;;;;5038261;28;20048;-63
2022/08/03 01:59:19;;;;;;;7.60;2.83;;;20.60;99.90;;;;;;5042782;28;20364;-63
2022/08/03 02:01:47;;;;;;;7.18;2.53;;;20.60;99.90;;;;;;5040605;28;20514;-64
2022/08/03 02:04:16;;;;;;;7.82;2.20;;;20.60;99.90;;;;;;5038521;28;20781;-64
2022/08/03 02:06:43;;;;;;;7.72;2.50;;;20.60;99.90;;;;;;5043437;28;20053;-63
2022/08/03 02:09:12;;;;;;;7.40;2.20;;;20.60;99.90;;;;;;5035431;28;20162;-63
2022/08/03 02:11:38;;;;;;;6.57;2.35;;;20.60;99.90;;;;;;5037843;28;20053;-64
2022/08/03 02:14:06;;;;;;;8.57;2.28;;;20.60;99.90;;;;;;5044643;28;20052;-66
2022/08/03 02:16:33;;;;;;;9.27;2.33;;;20.60;99.90;;;;;;5038754;28;20038;-64
2022/08/03 02:19:03;;;;;;;8.63;2.38;;;20.50;99.90;;;;;;5034027;28;20155;-64
2022/08/03 02:21:32;;;;;;;7.57;2.40;;;20.50;99.90;;;;;;5042703;28;20425;-64
2022/08/03 02:23:58;;;;;;;7.10;1.98;;;20.50;99.90;;;;;;5044421;28;20106;-64
2022/08/03 02:26:27;;;;;;;6.85;2.17;;;20.50;99.90;;;;;;5047133;28;20041;-64
2022/08/03 02:28:57;;;;;;;8.32;1.92;;;20.50;99.90;;;;;;5041171;28;20037;-64
2022/08/03 02:31:27;;;;;;;6.35;2.00;;;20.40;99.90;;;;;;5044254;28;20135;-64
2022/08/03 02:33:57;;;;;;;6.82;2.40;;;20.40;99.90;;;;;;5035980;28;20060;-64
2022/08/03 02:36:26;;;;;;;6.53;2.10;;;20.40;99.90;;;;;;5041898;28;20119;-64
2022/08/03 02:38:55;;;;;;;9.52;1.92;;;20.40;99.90;;;;;;5035894;28;20041;-64
2022/08/03 02:41:36;;;;;;;5.78;2.35;;;20.40;99.90;;;;;;5030771;28;20041;-64
2022/08/03 02:44:07;;;;;;;6.35;2.25;;;20.40;99.90;;;;;;5037731;28;20045;-64
2022/08/03 02:46:37;;;;;;;5.30;2.20;;;20.40;99.90;;;;;;5039667;28;20072;-64
2022/08/03 02:49:05;;;;;;;10.50;2.83;;;20.40;99.90;;;;;;5038191;28;20053;-65
2022/08/03 02:51:34;;;;;;;6.57;2.17;;;20.30;99.90;;;;;;5040309;28;20044;-65
2022/08/03 02:54:02;;;;;;;7.10;1.80;;;20.30;99.90;;;;;;5044149;28;20049;-64
2022/08/03 02:56:29;;;;;;;8.07;1.90;;;20.30;99.90;;;;;;5035478;28;20053;-65
2022/08/03 02:58:56;;;;;;;7.35;2.35;;;20.20;99.90;;;;;;5036196;28;20038;-65
2022/08/03 03:01:23;;;;;;;8.23;2.10;;;20.30;99.90;;;;;;5038082;28;20052;-64
2022/08/03 03:03:50;;;;;;;5.18;2.00;;;20.30;99.90;;;;;;5031398;28;20691;-65
2022/08/03 03:06:18;;;;;;;6.60;2.20;;;20.20;99.90;;;;;;5040692;28;20048;-64
2022/08/03 03:08:45;;;;;;;8.10;2.10;;;20.20;99.90;;;;;;5044401;28;20407;-63
2022/08/03 03:11:12;;;;;;;8.48;2.40;;;20.10;99.90;;;;;;5040789;28;20075;-64
2022/08/03 03:13:40;;;;;;;6.28;2.10;;;20.20;99.90;;;;;;5037069;28;20041;-64
2022/08/03 03:16:07;;;;;;;5.65;1.92;;;20.10;99.90;;;;;;5036796;28;20064;-65
2022/08/03 03:18:33;;;;;;;10.48;2.10;;;20.10;99.90;;;;;;5034509;28;20448;-64
2022/08/03 03:21:01;;;;;;;5.13;1.80;;;20.10;99.90;;;;;;5037632;28;20037;-64
2022/08/03 03:23:28;;;;;;;8.82;2.33;;;20.10;99.90;;;;;;5036294;28;20384;-63
2022/08/03 03:25:54;;;;;;;8.52;2.13;;;20.10;99.90;;;;;;5040683;28;20032;-64
2022/08/03 03:28:22;;;;;;;7.65;2.28;;;20.00;99.90;;;;;;5039270;28;20056;-64
2022/08/03 03:30:48;;;;;;;13.15;2.50;;;20.00;99.90;;;;;;5044212;28;20286;-64
2022/08/03 03:33:13;;;;;;;10.43;2.10;;;20.00;99.90;;;;;;5040294;28;20986;-64
2022/08/03 03:35:42;;;;;;;8.02;2.00;;;19.90;99.90;;;;;;5037448;28;20049;-64
2022/08/03 03:38:08;;;;;;;8.30;2.00;;;20.00;99.90;;;;;;5041551;28;21552;-64
2022/08/03 03:40:35;;;;;;;8.07;1.95;;;20.00;99.90;;;;;;5037818;28;20076;-64
2022/08/03 03:43:01;;;;;;;6.60;2.10;;;19.90;99.90;;;;;;5019467;28;20072;-64
2022/08/03 03:45:27;;;;;;;6.55;2.20;;;19.90;99.90;;;;;;5030460;28;20391;-63
2022/08/03 03:47:53;;;;;;;6.85;2.10;;;19.90;99.90;;;;;;5036457;28;20064;-64
2022/08/03 03:50:21;;;;;;;7.53;2.10;;;19.90;99.90;;;;;;5035885;28;20036;-64
2022/08/03 03:52:46;;;;;;;10.93;2.58;;;19.90;99.90;;;;;;5035802;28;20034;-64
2022/08/03 03:55:15;;;;;;;6.82;2.30;;;19.90;99.90;;;;;;5038939;28;20083;-63
2022/08/03 03:57:41;;;;;;;6.47;2.13;;;19.90;99.90;;;;;;5037200;28;20049;-64
2022/08/03 04:00:07;;;;;;;8.18;2.70;;;19.90;99.90;;;;;;5032818;28;20045;-66
2022/08/03 04:02:33;;;;;;;10.65;2.35;;;19.80;99.90;;;;;;5034785;28;20033;-64
2022/08/03 04:11:21;;;;;;;8.77;2.85;;;19.80;99.90;;;;;;5037107;28;20050;-64
2022/08/03 04:13:51;;;;;;;8.27;2.53;;;19.80;99.90;;;;;;5035167;28;20134;-64
2022/08/03 04:16:20;;;;;;;7.82;2.20;;;19.80;99.90;;;;;;5033389;28;20118;-66
2022/08/03 04:18:51;;;;;;;7.28;2.38;;;19.80;99.90;;;;;;5032175;28;20071;-64
2022/08/03 04:21:20;;;;;;;8.13;2.50;;;19.80;99.90;;;;;;5034403;28;20102;-64
2022/08/03 04:23:48;;;;;;;10.15;2.83;;;19.80;99.90;;;;;;5039109;28;20095;-64
2022/08/03 04:26:21;;;;;;;8.30;2.53;;;19.80;99.90;;;;;;5033978;28;20037;-64
2022/08/03 04:28:49;;;;;;;8.85;2.35;;;19.80;99.90;;;;;;5039804;28;20101;-64
2022/08/03 04:31:16;;;;;;;11.98;2.88;;;19.80;99.90;;;;;;5051543;28;20502;-64
2022/08/03 04:33:43;;;;;;;10.38;2.60;;;19.80;99.90;;;;;;5046483;28;20112;-64
2022/08/03 04:36:14;;;;;;;8.70;2.42;;;19.90;99.90;;;;;;5044582;28;20421;-63
2022/08/03 04:38:54;;;;;;;8.05;2.47;;;19.70;99.90;;;;;;5036427;28;20040;-64
2022/08/03 04:41:21;;;;;;;9.30;2.53;;;19.90;99.90;;;;;;5037240;28;20072;-63
2022/08/03 04:43:50;;;;;;;7.13;2.33;;;19.80;99.90;;;;;;5034756;28;20362;-66
2022/08/03 04:46:17;;;;;;;7.20;2.63;;;19.90;99.90;;;;;;5032397;28;20037;-66
2022/08/03 04:48:43;;;;;;;8.55;2.33;;;19.90;99.90;;;;;;5034352;28;20090;-66
2022/08/03 04:51:10;;;;;;;11.30;2.72;;;19.90;99.90;;;;;;5034027;28;20157;-67
2022/08/03 04:53:36;;;;;;;8.63;2.67;;;19.90;99.90;;;;;;5034867;28;20049;-67
2022/08/03 04:56:06;;;;;;;9.80;2.80;;;19.90;99.90;;;;;;5040886;28;20503;-69
2022/08/03 04:58:31;;;;;;;6.30;2.67;;;20.00;99.90;;;;;;5033590;28;20042;-66
2022/08/03 05:00:58;;;;;;;9.30;2.97;;;20.00;99.90;;;;;;5034224;28;20075;-66
2022/08/03 05:03:23;;;;;;;7.90;2.50;;;20.10;99.90;;;;;;5034796;28;20048;-66
2022/08/03 05:05:50;;;;;;;8.75;3.15;;;20.20;99.90;;;;;;5044189;28;20110;-65
2022/08/03 05:08:15;;;;;;;8.93;2.60;;;20.20;99.90;;;;;;5035275;28;20127;-67
2022/08/03 05:10:41;;;;;;;8.38;2.75;;;20.20;99.90;;;;;;5033809;28;20059;-66
2022/08/03 05:13:10;;;;;;;8.75;3.00;;;20.30;99.90;;;;;;5038977;28;20036;-66
2022/08/03 05:15:36;;;;;;;9.10;2.83;;;20.40;99.90;;;;;;5044151;28;20432;-66
2022/08/03 05:18:02;;;;;;;7.97;2.90;;;20.50;99.90;;;;;;5038996;28;20056;-66
2022/08/03 05:20:27;;;;;;;6.05;2.50;;;20.60;99.90;;;;;;5040946;28;20124;-66
2022/08/03 05:22:53;;;;;;;8.50;2.78;;;20.60;99.90;;;;;;5039190;28;20053;-66
2022/08/03 05:25:19;;;;;;;10.20;2.92;;;20.80;99.90;;;;;;5032760;28;20116;-66
2022/08/03 05:27:44;;;;;;;8.70;2.80;;;20.80;99.90;;;;;;5046567;28;20063;-66
2022/08/03 05:30:10;;;;;;;8.70;2.80;;;20.90;99.90;;;;;;5035958;28;20045;-66
2022/08/03 05:32:36;;;;;;;10.75;2.70;;;21.00;99.90;;;;;;5033231;28;20048;-66
2022/08/03 05:35:01;;;;;;;8.48;2.85;;;21.10;99.90;;;;;;5032633;28;20044;-66
2022/08/03 05:37:27;;;;;;;8.10;3.05;;;21.20;99.90;;;;;;5036777;28;20045;-66
2022/08/03 05:39:52;;;;;;;9.60;2.92;;;21.30;99.90;;;;;;5032390;28;20084;-66
2022/08/03 05:42:18;;;;;;;8.27;3.17;;;21.30;99.90;;;;;;5035383;28;20313;-66
2022/08/03 05:44:43;;;;;;;9.82;3.00;;;21.50;99.90;;;;;;5035230;28;20033;-66
2022/08/03 05:47:09;;;;;;;11.55;3.65;;;21.50;99.90;;;;;;5039810;28;20332;-66
2022/08/03 05:49:35;;;;;;;7.30;2.80;;;21.60;99.90;;;;;;5037825;28;20036;-66
2022/08/03 05:52:01;;;;;;;6.82;3.10;;;21.70;99.90;;;;;;5034302;28;20484;-66
2022/08/03 05:54:26;;;;;;;9.35;3.03;;;21.80;99.90;;;;;;5037029;28;20083;-68
2022/08/03 05:56:52;;;;;;;8.07;3.28;;;21.80;99.90;;;;;;5042153;28;20063;-67
2022/08/03 05:59:18;;;;;;;10.90;3.00;;;21.80;99.90;;;;;;5040215;28;20078;-67
2022/08/03 06:01:44;;;;;;;10.38;3.22;;;21.90;99.90;;;;;;5041321;28;20358;-67
2022/08/03 06:04:09;;;;;;;9.77;2.78;;;22.00;99.90;;;;;;5032423;28;20050;-67
2022/08/03 06:06:35;;;;;;;6.97;3.08;;;22.10;99.90;;;;;;5038349;28;20521;-67
2022/08/03 06:09:00;;;;;;;11.82;3.55;;;22.20;99.90;;;;;;5038333;28;20037;-67
2022/08/03 06:11:26;;;;;;;15.32;3.28;;;22.30;99.90;;;;;;5043807;28;20037;-67
2022/08/03 06:13:51;;;;;;;9.93;3.20;;;22.40;99.90;;;;;;5036472;28;20044;-68
2022/08/03 06:16:17;;;;;;;10.98;3.17;;;22.40;99.90;;;;;;5033021;28;20132;-66
2022/08/03 06:18:43;;;;;;;9.85;3.30;;;22.40;99.90;;;;;;5041364;28;20056;-66
2022/08/03 06:21:09;;;;;;;8.93;3.17;;;22.50;99.90;;;;;;5037220;28;20318;-66
2022/08/03 06:23:34;;;;;;;9.10;3.20;;;22.60;99.90;;;;;;5035690;28;20460;-66
2022/08/03 06:26:01;;;;;;;10.35;3.55;;;22.50;99.90;;;;;;5032524;28;20152;-66
2022/08/03 06:28:26;;;;;;;12.00;3.38;;;22.60;99.90;;;;;;5047113;28;20396;-66
2022/08/03 06:30:52;;;;;;;8.70;3.45;;;22.50;99.90;;;;;;5035344;28;20041;-66
2022/08/03 06:33:17;;;;;;;10.95;3.10;;;22.60;99.90;;;;;;5040129;28;20088;-66
2022/08/03 06:35:43;;;;;;;13.32;3.33;;;22.60;99.90;;;;;;5043716;28;20045;-66
2022/08/03 06:38:09;;;;;;;11.15;3.40;;;22.50;99.90;;;;;;5037050;28;20038;-66
2022/08/03 06:40:38;;;;;;;13.95;3.28;;;22.50;99.90;;;;;;5041169;28;20393;-64
2022/08/03 06:43:05;;;;;;;9.85;3.10;;;22.50;99.90;;;;;;5042528;28;20496;-64
2022/08/03 06:45:31;;;;;;;11.35;3.40;;;22.50;99.90;;;;;;5032055;28;20395;-65
2022/08/03 06:48:05;;;;;;;13.55;3.65;;;22.50;99.90;;;;;;5043530;28;20424;-65
2022/08/03 06:50:31;;;;;;;13.27;3.72;;;22.50;99.90;;;;;;5037497;28;20515;-65
2022/08/03 06:52:57;;;;;;;10.88;3.25;;;22.50;99.90;;;;;;5035398;28;20033;-65
2022/08/03 06:55:23;;;;;;;13.25;3.50;;;22.60;99.90;;;;;;5047445;28;20043;-65
2022/08/03 06:57:48;;;;;;;11.18;3.30;;;22.70;99.90;;;;;;5047089;28;20502;-65
2022/08/03 07:00:14;;;;;;;13.30;3.88;;;22.80;99.90;;;;;;5041274;28;20637;-65
2022/08/03 07:02:40;;;;;;;9.27;3.20;;;22.80;99.90;;;;;;5048435;28;20039;-65
2022/08/03 07:05:07;;;;;;;11.82;3.45;;;22.90;99.90;;;;;;5044993;28;20501;-66
2022/08/03 07:07:32;;;;;;;11.85;3.70;;;22.80;99.90;;;;;;5039791;28;20124;-65
2022/08/03 07:09:58;;;;;;;10.88;3.15;;;22.90;99.90;;;;;;5047159;28;20124;-65
2022/08/03 07:12:27;;;;;;;13.23;3.33;;;22.80;99.90;;;;;;5047461;28;20048;-65
2022/08/03 07:14:54;;;;;;;14.13;3.88;;;22.90;99.90;;;;;;5047389;28;20040;-65
2022/08/03 07:17:19;;;;;;;11.50;3.47;;;23.00;99.90;;;;;;5047102;28;20045;-65
2022/08/03 07:19:45;;;;;;;10.55;3.45;;;23.10;99.90;;;;;;5044573;28;20060;-65
2022/08/03 07:22:11;;;;;;;12.88;3.63;;;23.10;99.90;;;;;;5046624;28;20054;-65
2022/08/03 07:24:36;;;;;;;9.35;3.67;;;23.20;99.90;;;;;;5044812;28;20044;-65
2022/08/03 07:27:02;;;;;;;13.30;3.55;;;23.30;99.90;;;;;;5046977;28;20037;-65
2022/08/03 07:29:28;;;;;;;11.82;3.63;;;23.30;99.90;;;;;;5045923;28;20076;-65
2022/08/03 07:31:54;;;;;;;10.77;3.47;;;23.30;99.90;;;;;;5046895;28;20041;-65
2022/08/03 07:34:20;;;;;;;9.15;3.28;;;23.30;99.90;;;;;;5042026;28;20072;-65
2022/08/03 07:36:45;;;;;;;14.05;3.70;;;23.40;99.90;;;;;;5038300;28;20053;-65
2022/08/03 07:39:11;;;;;;;13.68;3.25;;;23.40;99.90;;;;;;5042971;28;20053;-64
2022/08/03 07:41:36;;;;;;;11.70;3.50;;;23.40;99.90;;;;;;5043176;28;20692;-65
2022/08/03 07:44:02;;;;;;;10.20;3.40;;;23.50;99.90;;;;;;5042504;28;20102;-65
2022/08/03 07:46:28;;;;;;;12.20;3.85;;;23.50;99.90;;;;;;5042997;28;20075;-65
2022/08/03 07:48:53;;;;;;;9.15;3.00;;;23.70;99.90;;;;;;5038181;28;20052;-66
2022/08/03 07:51:19;;;;;;;12.80;3.40;;;23.80;99.90;;;;;;5047034;28;20045;-67
2022/08/03 07:53:44;;;;;;;14.85;3.63;;;23.90;99.90;;;;;;5046563;28;20049;-66
2022/08/03 07:56:10;;;;;;;9.50;2.75;;;24.10;99.90;;;;;;5034374;28;20067;-66
2022/08/03 07:58:36;;;;;;;11.00;3.47;;;24.20;99.90;;;;;;5047885;28;20041;-66
2022/08/03 08:01:01;;;;;;;11.07;3.25;;;24.30;99.90;;;;;;5036498;28;20053;-67
2022/08/03 08:03:27;;;;;;;16.38;4.05;;;24.30;99.90;;;;;;5041436;28;20036;-67
2022/08/03 08:05:52;;;;;;;10.90;3.65;;;24.40;99.90;;;;;;5044819;28;20084;-66
2022/08/03 08:08:19;;;;;;;11.35;2.95;;;24.40;99.90;;;;;;5032709;28;20450;-67
2022/08/03 08:10:45;;;;;;;9.75;2.75;;;24.60;99.90;;;;;;5048243;28;20258;-66
2022/08/03 08:13:11;;;;;;;13.25;3.83;;;24.70;99.90;;;;;;5045955;28;20095;-67
2022/08/03 08:15:36;;;;;;;10.65;3.08;;;24.90;99.90;;;;;;5030989;28;20453;-67
2022/08/03 08:18:02;;;;;;;10.63;3.20;;;25.00;99.90;;;;;;5033769;28;20049;-66
2022/08/03 08:20:31;;;;;;;12.00;3.35;;;25.10;99.90;;;;;;5041688;28;20115;-67
2022/08/03 08:23:02;;;;;;;11.45;3.33;;;25.10;99.90;;;;;;5030546;28;20081;-67
2022/08/03 08:25:29;;;;;;;12.00;3.45;;;25.10;99.90;;;;;;5038802;28;20064;-66
2022/08/03 08:27:55;;;;;;;10.90;3.08;;;25.20;99.90;;;;;;5043891;28;20365;-66
2022/08/03 08:30:22;;;;;;;10.27;3.20;;;25.20;99.90;;;;;;5030561;28;20041;-67
2022/08/03 08:32:49;;;;;;;14.20;3.30;;;25.30;99.90;;;;;;5031511;28;20053;-66
2022/08/03 08:35:16;;;;;;;10.63;2.97;;;25.50;99.90;;;;;;5040015;28;20133;-66
2022/08/03 08:37:42;;;;;;;14.95;3.30;;;25.60;99.90;;;;;;5049570;28;20139;-64
2022/08/03 08:40:08;;;;;;;11.65;3.70;;;25.70;99.90;;;;;;5043570;28;20404;-65
2022/08/03 08:42:37;;;;;;;13.18;3.45;;;25.80;99.90;;;;;;5040890;28;20072;-64
2022/08/03 08:45:05;;;;;;;12.07;3.25;;;25.70;99.90;;;;;;5048771;28;20092;-65
2022/08/03 08:47:32;;;;;;;12.95;3.00;;;25.80;99.90;;;;;;5050912;28;20460;-66
2022/08/03 08:49:59;;;;;;;13.35;3.33;;;26.00;99.90;;;;;;5038881;28;20051;-66
2022/08/03 08:52:27;;;;;;;10.27;2.60;;;26.10;99.90;;;;;;5046952;28;20420;-66
2022/08/03 08:55:02;;;;;;;14.75;3.20;;;26.20;99.90;;;;;;5035402;28;20040;-66
2022/08/03 08:57:43;;;;;;;11.45;3.03;;;26.30;99.90;;;;;;5050839;28;20049;-66
2022/08/03 09:00:13;;;;;;;10.25;2.88;;;26.30;99.90;;;;;;5042508;28;20053;-66
2022/08/03 09:02:41;;;;;;;11.88;2.88;;;26.40;99.90;;;;;;5042639;28;20383;-65
2022/08/03 09:05:10;;;;;;;9.02;2.38;;;26.50;99.90;;;;;;5033891;28;20132;-66
2022/08/03 09:07:36;;;;;;;7.65;3.03;;;26.60;99.90;;;;;;5044859;28;20035;-66
2022/08/03 09:10:02;;;;;;;10.25;2.90;;;26.70;99.90;;;;;;5047209;28;20124;-66
2022/08/03 09:12:27;;;;;;;12.05;3.28;;;26.80;99.90;;;;;;5048134;28;20102;-65
2022/08/03 09:14:54;;;;;;;10.77;3.17;;;26.80;99.90;;;;;;5049082;28;20041;-66
2022/08/03 09:17:20;;;;;;;10.02;3.10;;;26.80;99.90;;;;;;5049187;28;20110;-66
2022/08/03 09:20:05;;;;;;;11.10;2.80;;;26.80;99.90;;;;;;5041627;28;20441;-66
2022/08/03 09:22:32;;;;;;;11.55;2.78;;;26.80;99.90;;;;;;5041232;28;20067;-66
2022/08/03 09:25:03;;;;;;;11.68;2.85;;;26.80;99.90;;;;;;5049852;28;20063;-64
2022/08/03 09:27:44;;;;;;;10.55;2.70;;;26.90;99.90;;;;;;5051369;28;20106;-66
2022/08/03 09:30:17;;;;;;;10.15;2.88;;;27.00;99.90;;;;;;5034306;28;20056;-66
2022/08/03 09:32:44;;;;;;;12.52;3.10;;;26.90;99.90;;;;;;5039080;28;20053;-66
2022/08/03 09:35:13;;;;;;;9.65;2.85;;;27.00;99.90;;;;;;5034569;28;20046;-67
2022/08/03 09:37:39;;;;;;;11.55;3.17;;;27.10;99.90;;;;;;5036933;28;20338;-66
2022/08/03 09:40:06;;;;;;;12.20;3.10;;;27.20;99.90;;;;;;5048404;28;20392;-66
2022/08/03 09:42:37;;;;;;;8.30;2.55;;;27.20;99.90;;;;;;5048646;28;20356;-66
2022/08/03 09:45:04;;;;;;;14.20;2.83;;;27.30;99.90;;;;;;5047140;28;20074;-67
2022/08/03 09:47:31;;;;;;;11.73;3.28;;;27.30;99.90;;;;;;5049254;28;20053;-66
2022/08/03 09:50:06;;;;;;;11.65;2.58;;;27.30;99.90;;;;;;5047123;28;20045;-67
2022/08/03 09:52:32;;;;;;;;;;;27.40;99.90;;;;;;5042838;28;20053;-66
2022/08/03 09:55:00;;;;;;;10.30;2.85;;;27.30;99.90;;;;;;5045591;28;19925;-65
2022/08/03 09:57:27;;;;;;;10.48;2.53;;;27.40;99.90;;;;;;5049243;28;20089;-66
2022/08/03 10:00:02;;;;;;;13.43;3.03;;;27.40;99.90;;;;;;5048671;28;20049;-67
2022/08/03 10:02:27;;;;;;;15.75;2.92;;;27.40;99.90;;;;;;5033765;28;20509;-67
2022/08/03 10:04:53;;;;;;;11.63;2.83;;;27.50;99.90;;;;;;5039092;28;20049;-66
2022/08/03 10:07:21;;;;;;;16.23;2.83;;;27.60;99.90;;;;;;5035216;28;20121;-66
2022/08/03 10:09:57;;;;;;;15.40;3.47;;;27.60;99.90;;;;;;5032203;28;20166;-65
2022/08/03 10:12:23;;;;;;;13.43;2.97;;;27.50;99.90;;;;;;5030866;28;20092;-65
2022/08/03 10:14:51;;;;;;;15.95;3.50;;;27.50;99.90;;;;;;5041080;28;20071;-65
2022/08/03 10:17:17;;;;;;;16.50;2.97;;;27.50;99.90;;;;;;5041975;28;20112;-65
2022/08/03 10:19:42;;;;;;;12.93;2.83;;;27.60;99.90;;;;;;5044080;28;20044;-65
2022/08/03 10:22:18;;;;;;;12.38;3.05;;;27.70;99.90;;;;;;5045149;28;20045;-65
2022/08/03 10:24:52;;;;;;;15.68;3.05;;;27.70;99.90;;;;;;5046681;28;20041;-65
2022/08/03 10:27:20;;;;;;;10.27;3.47;;;27.80;99.40;;;;;;5040389;28;20465;-64
2022/08/03 10:29:51;;;;;;;10.02;2.72;;;27.90;99.10;;;;;;5038315;28;20495;-65
2022/08/03 10:32:24;;;;;;;15.57;3.00;;;28.00;99.30;;;;;;5040568;28;20075;-65
2022/08/03 10:34:51;;;;;;;12.63;3.10;;;28.10;99.30;;;;;;5044618;28;20045;-65
2022/08/03 10:37:19;;;;;;;13.25;3.25;;;28.10;99.00;;;;;;5035810;28;20048;-65
2022/08/03 10:39:53;;;;;;;13.95;3.70;;;28.00;98.70;;;;;;5034523;28;20161;-65
2022/08/03 10:42:24;;;;;;;18.45;3.75;;;28.10;98.80;;;;;;5045782;28;20126;-65
2022/08/03 10:45:01;;;;;;;15.55;3.40;;;28.10;98.50;;;;;;5052888;28;20041;-65
2022/08/03 10:47:28;;;;;;;14.93;3.03;;;28.20;98.20;;;;;;5032612;28;20045;-65
2022/08/03 10:49:53;;;;;;;12.32;3.20;;;28.20;98.30;;;;;;5044471;28;20044;-65
2022/08/03 10:52:19;;;;;;;15.18;3.25;;;28.30;98.10;;;;;;5040616;28;20368;-65
2022/08/03 10:57:52;;;;;;;13.60;3.00;;;28.50;97.90;;;;;;5039754;28;20075;-65
2022/08/03 11:00:20;;;;;;;14.52;3.10;;;28.70;97.10;;;;;;5045132;28;20045;-65
2022/08/03 11:03:04;;;;;;;15.18;3.35;;;28.80;97.20;;;;;;5041973;28;20082;-65
2022/08/03 11:05:31;;;;;;;;;;;28.90;97.10;;;;;;5032135;28;20045;-65
2022/08/03 11:08:18;;;;;;;12.10;2.50;;;28.90;95.70;;;;;;5029659;28;19928;-65
2022/08/03 11:10:45;;;;;;;11.43;2.63;;;28.90;94.50;;;;;;5034782;28;20064;-65
2022/08/03 11:13:14;;;;;;;13.23;2.70;;;28.90;94.20;;;;;;5029694;28;20052;-65
2022/08/03 11:15:42;;;;;;;11.23;2.72;;;29.00;93.90;;;;;;5033288;28;20050;-65
2022/08/03 11:18:09;;;;;;;10.30;2.90;;;29.00;94.10;;;;;;5028722;28;20492;-65
2022/08/03 11:20:47;;;;;;;13.30;2.90;;;29.10;94.30;;;;;;5028264;28;20050;-65
2022/08/03 11:23:14;;;;;;;14.30;2.80;;;29.30;93.50;;;;;;5032506;28;20077;-65
2022/08/03 11:26:17;;;;;;;16.05;2.85;;;29.40;92.90;;;;;;5026674;28;20128;-65
2022/08/03 11:28:45;;;;;;;10.65;2.95;;;29.40;92.90;;;;;;5028732;28;20511;-65
2022/08/03 11:31:23;;;;;;;15.38;3.28;;;29.30;92.70;;;;;;5027273;28;20065;-65
2022/08/03 11:34:08;;;;;;;12.52;3.13;;;29.40;92.70;;;;;;5026171;28;20057;-65
2022/08/03 11:37:12;;;;;;;11.38;2.50;;;29.30;92.10;;;;;;5044708;28;20404;-65
2022/08/03 11:39:45;;;;;;;11.18;2.55;;;29.40;91.60;;;;;;5026417;28;20045;-65
2022/08/03 11:42:23;;;;;;;11.47;2.73;;;29.30;92.20;;;;;;5030934;28;20118;-65
2022/08/03 11:44:56;;;;;;;12.00;2.75;;;29.40;91.10;;;;;;5028721;28;20064;-65
2022/08/03 11:47:25;;;;;;;12.60;2.72;;;29.30;91.40;;;;;;5029837;28;20048;-66
2022/08/03 11:49:54;;;;;;;15.77;3.28;;;29.40;91.90;;;;;;5024458;28;20114;-65
2022/08/03 11:52:20;;;;;;;11.82;2.72;;;29.50;91.90;;;;;;5028117;28;20042;-65
2022/08/03 11:54:50;;;;;;;13.23;2.85;;;29.60;92.00;;;;;;5026882;28;20041;-65
2022/08/03 11:57:32;;;;;;;11.77;2.80;;;29.60;91.10;;;;;;5029874;28;20086;-65
2022/08/03 11:59:57;;;;;;;13.15;2.78;;;29.60;91.20;;;;;;5029958;28;20041;-65
2022/08/03 12:02:23;;;;;;;10.95;2.15;;;29.60;90.90;;;;;;5035167;28;20041;-65
2022/08/03 12:04:57;;;;;;;12.50;2.50;;;29.60;90.40;;;;;;5033459;28;20045;-65
2022/08/03 12:07:23;;;;;;;6.22;1.80;;;29.70;87.50;;;;;;5044893;28;20041;-65
2022/08/03 12:10:09;;;;;;;12.95;2.53;;;29.60;85.20;;;;;;5045269;28;20440;-65
2022/08/03 12:12:36;;;;;;;11.57;2.42;;;29.70;87.00;;;;;;5041872;28;20038;-65
2022/08/03 12:15:03;;;;;;;13.95;2.60;;;29.70;85.80;;;;;;5030409;28;20056;-66
2022/08/03 12:17:36;;;;;;;10.45;2.40;;;29.80;86.60;;;;;;5027863;28;20457;-65
2022/08/03 12:20:05;;;;;;;8.67;2.37;;;29.80;86.20;;;;;;5024449;28;20046;-65
2022/08/03 12:22:38;;;;;;;10.15;2.30;;;29.80;85.30;;;;;;5036326;28;20921;-65
2022/08/03 12:25:05;;;;;;;9.68;2.55;;;29.80;84.40;;;;;;5037048;28;20127;-65
2022/08/03 12:27:30;;;;;;;11.48;2.47;;;29.90;84.30;;;;;;5027603;28;20041;-65
2022/08/03 12:29:57;;;;;;;11.20;2.90;;;29.90;85.20;;;;;;5028467;28;20041;-65
2022/08/03 12:32:24;;;;;;;16.02;2.53;;;30.10;87.20;;;;;;5036118;28;20042;-65
2022/08/03 12:34:51;;;;;;;9.95;2.58;;;30.10;86.00;;;;;;5042579;28;20158;-65
2022/08/03 12:37:21;;;;;;;13.07;2.72;;;30.10;85.30;;;;;;5045198;28;20044;-65
2022/08/03 12:39:55;;;;;;;12.68;3.00;;;30.20;84.10;;;;;;5039555;28;20052;-66
2022/08/03 12:42:20;;;;;;;8.77;2.55;;;30.20;83.50;;;;;;5041930;28;20045;-66
2022/08/03 12:44:47;;;;;;;12.63;2.35;;;30.30;85.20;;;;;;5045231;28;20098;-65
2022/08/03 12:47:14;;;;;;;10.05;2.50;;;30.30;84.40;;;;;;5047761;28;20110;-66
2022/08/03 12:49:48;;;;;;;9.98;2.30;;;30.40;84.90;;;;;;5045269;28;20094;-65
2022/08/03 12:52:15;;;;;;;11.85;2.78;;;30.40;83.50;;;;;;5045202;28;20057;-65
2022/08/03 12:54:41;;;;;;;11.10;2.35;;;30.50;82.50;;;;;;5048943;28;20578;-65
2022/08/03 12:57:11;;;;;;;10.20;2.40;;;30.50;82.10;;;;;;5047789;28;20499;-65
2022/08/03 12:59:47;;;;;;;9.05;2.55;;;30.50;81.90;;;;;;5042755;28;20045;-65